Time;durP1;ratioP1;P1;durP2;ratioP2;P2;SDS_P1;SDS_P2;PMS_P1;PMS_P2;Temp;Humidity;BMP_temperature;BMP_pressure;BME280_temperature;BME280_humidity;BME280_pressure;Samples;Min_cycle;Max_cycle;Signal;HPM_P1;HPM_P2
2023/10/15 00:00:45;;;;;;;;;;;;;;;-140.72;100.00;58031.75;5074024;28;20442;-70
2023/10/15 00:03:11;;;;;;;;;;;;;;;-140.72;100.00;58119.13;5072849;28;19987;-70
2023/10/15 00:05:36;;;;;;;;;;;;;;;-140.72;100.00;58393.47;5069849;28;19946;-70
2023/10/15 00:08:01;;;;;;;;;;;;;;;-140.72;100.00;58360.97;5071433;28;20394;-70
2023/10/15 00:10:27;;;;;;;;;;;;;;;-140.72;100.00;58432.09;5069251;28;19921;-70
2023/10/15 00:12:53;;;;;;;;;;;;;;;-140.72;100.00;58509.31;5069348;28;20442;-70
2023/10/15 00:15:19;;;;;;;;;;;;;;;-140.72;100.00;58596.69;5070800;28;20034;-70
2023/10/15 00:17:46;;;;;;;;;;;;;;;-140.72;100.00;58643.44;5071824;28;19929;-70
2023/10/15 00:20:16;;;;;;;;;;;;;;;-140.72;100.00;58730.84;5071394;28;20006;-70
2023/10/15 00:22:42;;;;;;;;;;;;;;;-140.72;100.00;58785.72;5072245;28;19921;-70
2023/10/15 00:25:09;;;;;;;;;;;;;;;-140.72;100.00;58852.78;5075943;28;19928;-71
2023/10/15 00:27:36;;;;;;;;;;;;;;;-140.72;100.00;58930.00;5071481;28;20046;-70
2023/10/15 00:30:02;;;;;;;;;;;;;;;-140.72;100.00;58986.91;5077864;28;20017;-71
2023/10/15 00:32:29;;;;;;;;;;;;;;;-140.72;100.00;59062.13;5078467;28;20385;-70
2023/10/15 00:34:54;;;;;;;;;;;;;;;-140.72;100.00;59098.72;5071453;28;19920;-70
2023/10/15 00:37:22;;;;;;;;;;;;;;;-140.72;100.00;59149.53;5069840;28;19927;-70
2023/10/15 00:39:47;;;;;;;;;;;;;;;-140.72;100.00;59165.78;5073412;28;19921;-70
2023/10/15 00:42:22;;;;;;;;;;;;;;;-140.72;100.00;59255.22;5070397;28;19994;-70
2023/10/15 00:44:47;;;;;;;;;;;;;;;-140.72;100.00;59320.25;5070061;28;19927;-71
2023/10/15 00:47:15;;;;;;;;;;;;;;;-140.72;100.00;59304.00;5072064;28;19920;-71
2023/10/15 00:49:44;;;;;;;;;;;;;;;-140.72;100.00;59346.69;5070894;28;19954;-70
2023/10/15 00:52:10;;;;;;;;;;;;;;;-140.72;100.00;59413.75;5066934;28;19921;-71
2023/10/15 00:54:35;;;;;;;;;;;;;;;-140.72;100.00;59458.47;5066626;28;19970;-71
2023/10/15 00:59:58;;;;;;;;;;;;;;;-140.72;100.00;59541.81;5072354;28;20011;-71
2023/10/15 01:02:28;;;;;;;;;;;;;;;-140.72;100.00;59570.28;5074679;28;19979;-71
2023/10/15 01:04:58;;;;;;;;;;;;;;;-140.72;100.00;59586.56;5074283;28;20003;-70
2023/10/15 01:07:46;;;;;;;;;;;;;;;-140.72;100.00;59653.63;5075927;28;19968;-71
2023/10/15 01:10:37;;;;;;;;;;;;;;;-140.72;100.00;59671.94;5066323;28;19928;-71
2023/10/15 01:13:18;;;;;;;;;;;;;;;-140.72;100.00;59726.81;5073854;28;19924;-70
2023/10/15 01:15:45;;;;;;;;;;;;;;;-140.72;100.00;59726.81;5071401;28;19921;-71
2023/10/15 01:18:10;;;;;;;;;;;;;;;-140.72;100.00;59710.56;5067632;28;19943;-70
2023/10/15 01:20:41;;;;;;;;;;;;;;;-140.72;100.00;59627.22;5069510;28;19928;-70
2023/10/15 01:23:06;;;;;;;;;;;;;;;-140.72;100.00;59568.25;5068176;28;19924;-71
2023/10/15 01:25:33;;;;;;;;;;;;;;;-140.72;100.00;59576.38;5068714;28;19928;-71
2023/10/15 01:28:00;;;;;;;;;;;;;;;-140.72;100.00;59560.13;5073110;28;19931;-71
2023/10/15 01:30:25;;;;;;;;;;;;;;;-140.72;100.00;59486.94;5075980;28;19920;-71
2023/10/15 01:32:51;;;;;;;;;;;;;;;-140.72;100.00;59478.81;5073925;28;20280;-70
2023/10/15 01:35:19;;;;;;;;;;;;;;;-140.72;100.00;59474.75;5079390;28;19956;-70
2023/10/15 01:37:57;;;;;;;;;;;;;;;-140.72;100.00;59411.72;5073001;28;19955;-70
2023/10/15 01:40:40;;;;;;;;;;;;;;;-140.72;100.00;59430.03;5072536;28;20414;-71
2023/10/15 01:43:08;;;;;;;;;;;;;;;-140.72;100.00;59442.22;5073201;28;20325;-71
2023/10/15 01:45:38;;;;;;;;;;;;;;;-140.72;100.00;59454.41;5073228;28;19920;-71
2023/10/15 01:48:13;;;;;;;;;;;;;;;-140.72;100.00;59409.69;5072373;28;19920;-71
2023/10/15 01:50:49;;;;;;;;;;;;;;;-140.72;100.00;59425.97;5070514;28;19924;-71
2023/10/15 01:53:14;;;;;;;;;;;;;;;-140.72;100.00;59405.63;5067963;28;19927;-70
2023/10/15 01:55:52;;;;;;;;;;;;;;;-140.72;100.00;59401.56;5069601;28;19929;-71
2023/10/15 01:58:30;;;;;;;;;;;;;;;-140.72;100.00;59348.72;5076439;28;19928;-71
2023/10/15 02:00:55;;;;;;;;;;;;;;;-140.72;100.00;59385.31;5074927;28;19921;-70
2023/10/15 02:03:34;;;;;;;;;;;;;;;-140.72;100.00;59405.63;5073089;28;20007;-71
2023/10/15 02:06:05;;;;;;;;;;;;;;;-140.72;100.00;59442.22;5071574;28;19927;-71
2023/10/15 02:08:30;;;;;;;;;;;;;;;-140.72;100.00;59462.56;5076748;28;19927;-71
2023/10/15 02:10:56;;;;;;;;;;;;;;;-140.72;100.00;59454.41;5077435;28;19924;-70
2023/10/15 02:13:21;;;;;;;;;;;;;;;-140.72;100.00;59474.75;5072216;28;19963;-71
2023/10/15 02:15:49;;;;;;;;;;;;;;;-140.72;100.00;59523.53;5076516;28;19962;-70
2023/10/15 02:18:14;;;;;;;;;;;;;;;-140.72;100.00;59488.97;5077102;28;19928;-71
2023/10/15 02:23:20;;;;;;;;;;;;;;;-140.72;100.00;59535.72;5076823;28;19921;-71
2023/10/15 02:25:47;;;;;;;;;;;;;;;-140.72;100.00;59539.78;5074566;28;19927;-70
2023/10/15 02:28:13;;;;;;;;;;;;;;;-140.72;100.00;59576.38;5073585;28;20039;-71
2023/10/15 02:30:40;;;;;;;;;;;;;;;-140.72;100.00;59615.00;5074619;28;20003;-71
2023/10/15 02:33:06;;;;;;;;;;;;;;;-140.72;100.00;59578.41;5076726;28;19948;-76
2023/10/15 02:35:39;;;;;;;;;;;;;;;-140.72;100.00;59606.88;5076543;28;19917;-69
2023/10/15 02:38:08;;;;;;;;;;;;;;;-140.72;100.00;59574.34;5076901;28;19917;-70
2023/10/15 02:40:37;;;;;;;;;;;;;;;-140.72;100.00;59619.06;5071847;28;19923;-70
2023/10/15 02:43:06;;;;;;;;;;;;;;;-140.72;100.00;59600.78;5077004;28;19927;-69
2023/10/15 02:45:35;;;;;;;;;;;;;;;-140.72;100.00;59590.63;5068483;28;19921;-69
2023/10/15 02:48:09;;;;;;;;;;;;;;;-140.72;100.00;59608.91;5098284;28;19945;-70
2023/10/15 02:50:35;;;;;;;;;;;;;;;-140.72;100.00;59580.44;5078893;28;19920;-70
2023/10/15 02:53:04;;;;;;;;;;;;;;;-140.72;100.00;59564.19;5081386;28;20302;-69
2023/10/15 02:55:35;;;;;;;;;;;;;;;-140.72;100.00;59541.81;5069019;28;19969;-69
2023/10/15 02:58:01;;;;;;;;;;;;;;;-140.72;100.00;59588.59;5080171;28;19916;-70
2023/10/15 03:00:32;;;;;;;;;;;;;;;-140.72;100.00;59568.25;5078012;28;19927;-69
2023/10/15 03:02:57;;;;;;;;;;;;;;;-140.72;100.00;59584.50;5075837;28;19956;-70
2023/10/15 03:05:30;;;;;;;;;;;;;;;-140.72;100.00;59549.97;5071229;28;20378;-68
2023/10/15 03:07:55;;;;;;;;;;;;;;;-140.72;100.00;59580.44;5071062;28;19923;-69
2023/10/15 03:10:23;;;;;;;;;;;;;;;-140.72;100.00;59535.72;5074943;28;19916;-70
2023/10/15 03:12:48;;;;;;;;;;;;;;;-140.72;100.00;59468.66;5074375;28;19920;-67
2023/10/15 03:15:14;;;;;;;;;;;;;;;-140.72;100.00;59413.75;5075569;28;19962;-69
2023/10/15 03:17:48;;;;;;;;;;;;;;;-140.72;100.00;59320.25;5079982;28;19985;-70
2023/10/15 03:22:45;;;;;;;;;;;;;;;-140.72;100.00;59263.34;5075561;28;19999;-70
2023/10/15 03:25:13;;;;;;;;;;;;;;;-140.72;100.00;59147.50;5075189;28;19930;-71
2023/10/15 03:27:46;;;;;;;;;;;;;;;-140.72;100.00;59088.53;5074406;28;19917;-70
2023/10/15 03:30:13;;;;;;;;;;;;;;;-140.72;100.00;59023.50;5075094;28;19928;-70
2023/10/15 03:32:41;;;;;;;;;;;;;;;-140.72;100.00;58982.84;5075871;28;19924;-70
2023/10/15 03:35:16;;;;;;;;;;;;;;;-140.72;100.00;59005.22;5076232;28;19920;-70
2023/10/15 03:37:45;;;;;;;;;;;;;;;-140.72;100.00;58952.38;5076080;28;20387;-71
2023/10/15 03:40:17;;;;;;;;;;;;;;;-140.72;100.00;58948.31;5070911;28;19921;-71
2023/10/15 03:42:52;;;;;;;;;;;;;;;-140.72;100.00;58893.44;5072130;28;19924;-71
2023/10/15 03:45:26;;;;;;;;;;;;;;;-140.72;100.00;58934.06;5074366;28;19917;-70
2023/10/15 03:47:54;;;;;;;;;;;;;;;-140.72;100.00;58930.00;5071009;28;19920;-70
2023/10/15 03:50:19;;;;;;;;;;;;;;;-140.72;100.00;58964.56;5082823;28;20363;-70
2023/10/15 03:52:44;;;;;;;;;;;;;;;-140.72;100.00;58999.13;5081392;28;19923;-70
2023/10/15 03:55:10;;;;;;;;;;;;;;;-140.72;100.00;59019.44;5074423;28;19922;-71
2023/10/15 03:57:36;;;;;;;;;;;;;;;-140.72;100.00;59074.31;5085366;28;19970;-70
2023/10/15 04:00:06;;;;;;;;;;;;;;;-140.72;100.00;59074.31;5079323;28;19948;-68
2023/10/15 04:02:59;;;;;;;;;;;;;;;-140.72;100.00;59094.63;5080432;28;19920;-68
2023/10/15 04:05:20;;;;;;;;;;;;;;;-140.72;100.00;59117.00;5075737;28;20358;-70
2023/10/15 04:07:48;;;;;;;;;;;;;;;-140.72;100.00;59131.22;5083063;28;19921;-70
2023/10/15 04:10:13;;;;;;;;;;;;;;;-140.72;100.00;59106.84;5076321;28;19920;-70
2023/10/15 04:12:43;;;;;;;;;;;;;;;-140.72;100.00;59147.50;5080106;28;19917;-70
2023/10/15 04:15:14;;;;;;;;;;;;;;;-140.72;100.00;59143.41;5074885;28;19924;-70
2023/10/15 04:17:39;;;;;;;;;;;;;;;-140.72;100.00;59234.88;5083270;28;20282;-70
2023/10/15 04:20:05;;;;;;;;;;;;;;;-140.72;100.00;59222.69;5073251;28;19916;-70
2023/10/15 04:22:35;;;;;;;;;;;;;;;-140.72;100.00;59224.72;5075146;28;19917;-70
2023/10/15 04:25:06;;;;;;;;;;;;;;;-140.72;100.00;59269.44;5074189;28;19920;-70
2023/10/15 04:27:34;;;;;;;;;;;;;;;-140.72;100.00;59287.75;5088002;28;19916;-70
2023/10/15 04:30:00;;;;;;;;;;;;;;;-140.72;100.00;59328.38;5070130;28;19924;-70
2023/10/15 04:34:53;;;;;;;;;;;;;;;-140.72;100.00;59391.41;5073849;28;20274;-70
2023/10/15 04:37:20;;;;;;;;;;;;;;;-140.72;100.00;59393.44;5070327;28;19921;-70
2023/10/15 04:39:51;;;;;;;;;;;;;;;-140.72;100.00;59444.25;5074301;28;19929;-70
2023/10/15 04:42:21;;;;;;;;;;;;;;;-140.72;100.00;59470.69;5074695;28;20301;-70
2023/10/15 04:44:46;;;;;;;;;;;;;;;-140.72;100.00;59486.94;5074183;28;19929;-70
2023/10/15 04:47:12;;;;;;;;;;;;;;;-140.72;100.00;59543.84;5074343;28;19917;-70
2023/10/15 04:49:37;;;;;;;;;;;;;;;-140.72;100.00;59515.41;5071984;28;20321;-69
2023/10/15 04:52:13;;;;;;;;;;;;;;;-140.72;100.00;59574.34;5083960;28;19924;-70
2023/10/15 04:54:38;;;;;;;;;;;;;;;-140.72;100.00;59562.16;5068327;28;19925;-69
2023/10/15 04:57:04;;;;;;;;;;;;;;;-140.72;100.00;59572.31;5071352;28;19922;-70
2023/10/15 04:59:29;;;;;;;;;;;;;;;-140.72;100.00;59556.06;5074473;28;19945;-70
2023/10/15 05:01:54;;;;;;;;;;;;;;;-140.72;100.00;59547.94;5074860;28;20385;-69
2023/10/15 05:04:19;;;;;;;;;;;;;;;-140.72;100.00;59578.41;5084479;28;20010;-70
2023/10/15 05:06:44;;;;;;;;;;;;;;;-140.72;100.00;59513.38;5075719;28;19923;-70
2023/10/15 05:09:20;;;;;;;;;;;;;;;-140.72;100.00;59562.16;5073661;28;19923;-70
2023/10/15 05:11:46;;;;;;;;;;;;;;;-140.72;100.00;59560.13;5072102;28;19928;-69
2023/10/15 05:14:11;;;;;;;;;;;;;;;-140.72;100.00;59556.06;5073833;28;19916;-70
2023/10/15 05:16:36;;;;;;;;;;;;;;;-140.72;100.00;59537.75;5073563;28;20294;-70
2023/10/15 05:19:02;;;;;;;;;;;;;;;-140.72;100.00;59533.69;5073658;28;19938;-70
2023/10/15 05:21:29;;;;;;;;;;;;;;;-140.72;100.00;59480.84;5073584;28;20301;-70
2023/10/15 05:23:55;;;;;;;;;;;;;;;-140.72;100.00;59505.25;5086386;28;19962;-69
2023/10/15 05:26:20;;;;;;;;;;;;;;;-140.72;100.00;59478.81;5065109;28;20329;-70
2023/10/15 05:28:47;;;;;;;;;;;;;;;-140.72;100.00;59482.88;5073855;28;19956;-70
2023/10/15 05:31:12;;;;;;;;;;;;;;;-140.72;100.00;59454.41;5072035;28;19924;-70
2023/10/15 05:33:37;;;;;;;;;;;;;;;-140.72;100.00;59456.44;5075424;28;19916;-71
2023/10/15 05:36:03;;;;;;;;;;;;;;;-140.72;100.00;59464.59;5078417;28;19916;-69
2023/10/15 05:38:29;;;;;;;;;;;;;;;-140.72;100.00;59466.63;5077881;28;19917;-69
2023/10/15 05:40:57;;;;;;;;;;;;;;;-140.72;100.00;59440.19;5074681;28;19927;-69
2023/10/15 05:43:23;;;;;;;;;;;;;;;-140.72;100.00;59413.75;5081847;28;20343;-69
2023/10/15 05:45:48;;;;;;;;;;;;;;;-140.72;100.00;59417.84;5084696;28;20003;-68
2023/10/15 05:48:13;;;;;;;;;;;;;;;-140.72;100.00;59413.75;5068537;28;19916;-69
2023/10/15 05:50:39;;;;;;;;;;;;;;;-140.72;100.00;59389.38;5078157;28;19927;-73
2023/10/15 05:53:06;;;;;;;;;;;;;;;-140.72;100.00;59421.91;5076333;28;20011;-72
2023/10/15 05:55:32;;;;;;;;;;;;;;;-140.72;100.00;59413.75;5078280;28;19927;-73
2023/10/15 05:57:58;;;;;;;;;;;;;;;-140.72;100.00;59417.84;5089817;28;19916;-70
2023/10/15 06:00:26;;;;;;;;;;;;;;;-140.72;100.00;59470.69;5071519;28;19916;-71
2023/10/15 06:02:53;;;;;;;;;;;;;;;-140.72;100.00;59434.09;5078185;28;20379;-71
2023/10/15 06:05:19;;;;;;;;;;;;;;;-140.72;100.00;59491.00;5067870;28;19920;-71
2023/10/15 06:07:44;;;;;;;;;;;;;;;-140.72;100.00;59537.75;5078116;28;19983;-72
2023/10/15 06:10:11;;;;;;;;;;;;;;;-140.72;100.00;59523.53;5078235;28;20058;-71
2023/10/15 06:12:49;;;;;;;;;;;;;;;-140.72;100.00;59523.53;5072461;28;20227;-71
2023/10/15 06:15:15;;;;;;;;;;;;;;;-140.72;100.00;59552.00;5070882;28;20008;-71
2023/10/15 06:17:40;;;;;;;;;;;;;;;-140.72;100.00;59515.41;5068625;28;20022;-70
2023/10/15 06:20:14;;;;;;;;;;;;;;;-140.72;100.00;59470.69;5069568;28;20433;-70
2023/10/15 06:22:43;;;;;;;;;;;;;;;-140.72;100.00;59454.41;5069358;28;20341;-73
2023/10/15 06:25:09;;;;;;;;;;;;;;;-140.72;100.00;59415.78;5076136;28;19920;-70
2023/10/15 06:27:35;;;;;;;;;;;;;;;-140.72;100.00;59375.16;5074668;28;20350;-70
2023/10/15 06:30:02;;;;;;;;;;;;;;;-140.72;100.00;59330.44;5073684;28;19920;-70
2023/10/15 06:32:27;;;;;;;;;;;;;;;-140.72;100.00;59299.94;5070122;28;19972;-71
2023/10/15 06:34:52;;;;;;;;;;;;;;;-140.72;100.00;59253.19;5069424;28;19920;-71
2023/10/15 06:37:17;;;;;;;;;;;;;;;-140.72;100.00;59210.50;5072587;28;19927;-71
2023/10/15 06:39:42;;;;;;;;;;;;;;;-140.72;100.00;59143.41;5074397;28;20381;-71
2023/10/15 06:42:08;;;;;;;;;;;;;;;-140.72;100.00;59151.56;5071415;28;19927;-71
2023/10/15 06:44:34;;;;;;;;;;;;;;;-140.72;100.00;59123.09;5071646;28;19952;-70
2023/10/15 06:46:59;;;;;;;;;;;;;;;-140.72;100.00;59062.13;5070836;28;20255;-70
2023/10/15 06:49:24;;;;;;;;;;;;;;;-140.72;100.00;59088.53;5067627;28;19928;-69
2023/10/15 06:51:50;;;;;;;;;;;;;;;-140.72;100.00;59070.25;5074439;28;19921;-70
2023/10/15 06:54:17;;;;;;;;;;;;;;;-140.72;100.00;59027.56;5050842;28;20242;-69
2023/10/15 06:56:42;;;;;;;;;;;;;;;-140.72;100.00;58984.88;5067260;28;20027;-69
2023/10/15 06:59:08;;;;;;;;;;;;;;;-140.72;100.00;58990.97;5072919;28;19920;-70
2023/10/15 07:01:36;;;;;;;;;;;;;;;-140.72;100.00;59007.25;5074144;28;19975;-70
2023/10/15 07:04:01;;;;;;;;;;;;;;;-140.72;100.00;59007.25;5077662;28;19956;-74
2023/10/15 07:06:26;;;;;;;;;;;;;;;-140.72;100.00;59049.94;5074134;28;19916;-70
2023/10/15 07:08:51;;;;;;;;;;;;;;;-140.72;100.00;59047.91;5067962;28;19920;-70
2023/10/15 07:11:17;;;;;;;;;;;;;;;-140.72;100.00;59015.38;5074411;28;19920;-70
2023/10/15 07:13:43;;;;;;;;;;;;;;;-140.72;100.00;59049.94;5075835;28;20290;-71
2023/10/15 07:16:08;;;;;;;;;;;;;;;-140.72;100.00;59041.78;5076485;28;19926;-69
2023/10/15 07:18:33;;;;;;;;;;;;;;;-140.72;100.00;58980.81;5073146;28;20503;-70
2023/10/15 07:20:59;;;;;;;;;;;;;;;-140.72;100.00;58948.31;5073038;28;20020;-72
2023/10/15 07:23:24;;;;;;;;;;;;;;;-140.72;100.00;58864.97;5074371;28;19925;-70
2023/10/15 07:25:50;;;;;;;;;;;;;;;-140.72;100.00;58873.09;5071639;28;19927;-71
2023/10/15 07:28:15;;;;;;;;;;;;;;;-140.72;100.00;58842.63;5076625;28;19927;-72
2023/10/15 07:30:41;;;;;;;;;;;;;;;-140.72;100.00;58901.56;5070724;28;19920;-72
2023/10/15 07:33:06;;;;;;;;;;;;;;;-140.72;100.00;58858.88;5070825;28;19925;-73
2023/10/15 07:35:31;;;;;;;;;;;;;;;-140.72;100.00;58869.03;5074116;28;19943;-74
2023/10/15 07:37:57;;;;;;;;;;;;;;;-140.72;100.00;58917.81;5071086;28;19921;-73
2023/10/15 07:40:23;;;;;;;;;;;;;;;-140.72;100.00;58875.13;5079446;28;19927;-72
2023/10/15 07:42:53;;;;;;;;;;;;;;;-140.72;100.00;58895.47;5073606;28;19920;-72
2023/10/15 07:45:19;;;;;;;;;;;;;;;-140.72;100.00;58858.88;5073970;28;19927;-71
2023/10/15 07:47:45;;;;;;;;;;;;;;;-140.72;100.00;58820.25;5073277;28;19920;-71
2023/10/15 07:50:13;;;;;;;;;;;;;;;-140.72;100.00;58806.03;5072109;28;20072;-71
2023/10/15 07:52:38;;;;;;;;;;;;;;;-140.72;100.00;58753.19;5071183;28;19966;-72
2023/10/15 07:55:05;;;;;;;;;;;;;;;-140.72;100.00;58682.06;5072633;28;19920;-71
2023/10/15 07:57:30;;;;;;;;;;;;;;;-140.72;100.00;58606.84;5071118;28;19942;-74
2023/10/15 07:59:58;;;;;;;;;;;;;;;-140.72;100.00;58476.78;5069572;28;19924;-74
2023/10/15 08:02:23;;;;;;;;;;;;;;;-140.72;100.00;58450.38;5072845;28;19930;-74
2023/10/15 08:04:53;;;;;;;;;;;;;;;-140.72;100.00;58338.59;5070948;28;19928;-75
2023/10/15 08:07:18;;;;;;;;;;;;;;;-140.72;100.00;58212.63;5070624;28;19917;-73
2023/10/15 08:09:44;;;;;;;;;;;;;;;-140.72;100.00;58137.44;5065047;28;19974;-71
2023/10/15 08:12:09;;;;;;;;;;;;;;;-140.72;100.00;58043.94;5072411;28;19931;-71
2023/10/15 08:14:34;;;;;;;;;;;;;;;-140.72;100.00;58013.47;5068392;28;20011;-70
2023/10/15 08:16:59;;;;;;;;;;;;;;;-140.72;100.00;57980.97;5074793;28;20007;-72
2023/10/15 08:19:25;;;;;;;;;;;;;;;-140.72;100.00;57917.97;5075776;28;19920;-71
2023/10/15 08:21:50;;;;;;;;;;;;;;;-140.72;100.00;57974.88;5072234;28;20019;-71
2023/10/15 08:24:15;;;;;;;;;;;;;;;-140.72;100.00;58041.91;5072794;28;19928;-71
2023/10/15 08:26:41;;;;;;;;;;;;;;;-140.72;100.00;58129.28;5068972;28;19920;-71
2023/10/15 08:29:09;;;;;;;;;;;;;;;-140.72;100.00;58096.78;5070018;28;19977;-70
2023/10/15 08:31:35;;;;;;;;;;;;;;;-140.72;100.00;58111.00;5074244;28;19921;-72
2023/10/15 08:34:00;;;;;;;;;;;;;;;-140.72;100.00;58174.00;5069819;28;19943;-71
2023/10/15 08:36:25;;;;;;;;;;;;;;;-140.72;100.00;58232.94;5071775;28;20425;-74
2023/10/15 08:38:50;;;;;;;;;;;;;;;-140.72;100.00;58338.59;5075536;28;19939;-75
2023/10/15 08:41:16;;;;;;;;;;;;;;;-140.72;100.00;58397.53;5073509;28;20023;-70
2023/10/15 08:43:44;;;;;;;;;;;;;;;-140.72;100.00;58438.19;5068887;28;19917;-72
2023/10/15 08:46:11;;;;;;;;;;;;;;;-140.72;100.00;58470.69;5066792;28;20331;-71
2023/10/15 08:48:40;;;;;;;;;;;;;;;-140.72;100.00;58582.47;5073548;28;19923;-71
2023/10/15 08:51:08;;;;;;;;;;;;;;;-140.72;100.00;58608.88;5074052;28;19968;-74
2023/10/15 08:53:34;;;;;;;;;;;;;;;-140.72;100.00;58730.84;5073759;28;19921;-71
2023/10/15 08:56:01;;;;;;;;;;;;;;;-140.72;100.00;58696.28;5071488;28;20061;-71
2023/10/15 08:58:27;;;;;;;;;;;;;;;-140.72;100.00;58787.75;5067021;28;19970;-71
2023/10/15 09:00:56;;;;;;;;;;;;;;;-140.72;100.00;58820.25;5067334;28;19961;-74
2023/10/15 09:03:23;;;;;;;;;;;;;;;-140.72;100.00;58783.66;5071386;28;19942;-72
2023/10/15 09:05:52;;;;;;;;;;;;;;;-140.72;100.00;58840.59;5062765;28;20008;-73
2023/10/15 09:08:17;;;;;;;;;;;;;;;-140.72;100.00;58810.09;5066770;28;19924;-72
2023/10/15 09:10:42;;;;;;;;;;;;;;;-140.72;100.00;58757.25;5069223;28;20582;-72
2023/10/15 09:13:14;;;;;;;;;;;;;;;-140.72;100.00;58761.31;5072876;28;19920;-72
2023/10/15 09:15:43;;;;;;;;;;;;;;;-140.72;100.00;58743.03;5073288;28;19920;-71
2023/10/15 09:18:11;;;;;;;;;;;;;;;-140.72;100.00;58763.34;5071317;28;20278;-72
2023/10/15 09:20:39;;;;;;;;;;;;;;;-140.72;100.00;58682.06;5071251;28;19925;-71
2023/10/15 09:23:04;;;;;;;;;;;;;;;-140.72;100.00;58574.34;5074256;28;19917;-72
2023/10/15 09:25:30;;;;;;;;;;;;;;;-140.72;100.00;58478.81;5072290;28;20371;-73
2023/10/15 09:27:56;;;;;;;;;;;;;;;-140.72;100.00;58491.03;5074474;28;19924;-74
2023/10/15 09:30:22;;;;;;;;;;;;;;;-140.72;100.00;58373.16;5070067;28;19967;-72
2023/10/15 09:32:47;;;;;;;;;;;;;;;-140.72;100.00;58385.34;5065836;28;19963;-72
2023/10/15 09:35:13;;;;;;;;;;;;;;;-140.72;100.00;58289.84;5070154;28;19969;-72
2023/10/15 09:37:39;;;;;;;;;;;;;;;-140.72;100.00;58287.81;5071857;28;19932;-72
2023/10/15 09:40:09;;;;;;;;;;;;;;;-140.72;100.00;58245.13;5071134;28;19920;-73
2023/10/15 09:42:35;;;;;;;;;;;;;;;-140.72;100.00;58273.56;5081381;28;19966;-68
2023/10/15 09:45:02;;;;;;;;;;;;;;;-140.72;100.00;58318.28;5066173;28;19931;-71
2023/10/15 09:47:28;;;;;;;;;;;;;;;-140.72;100.00;58350.78;5072740;28;19935;-70
2023/10/15 09:49:54;;;;;;;;;;;;;;;-140.72;100.00;58369.09;5069928;28;19921;-70
2023/10/15 09:52:20;;;;;;;;;;;;;;;-140.72;100.00;58385.34;5071989;28;19931;-70
2023/10/15 09:54:48;;;;;;;;;;;;;;;-140.72;100.00;58446.31;5072657;28;20029;-70
2023/10/15 09:57:16;;;;;;;;;;;;;;;-140.72;100.00;58466.63;5066081;28;19927;-71
2023/10/15 09:59:41;;;;;;;;;;;;;;;-140.72;100.00;58478.81;5070742;28;20339;-71
2023/10/15 10:02:12;;;;;;;;;;;;;;;-140.72;100.00;58446.31;5069027;28;19962;-74
2023/10/15 10:04:56;;;;;;;;;;;;;;;-140.72;100.00;58426.00;5068794;28;19921;-71
2023/10/15 10:07:31;;;;;;;;;;;;;;;-140.72;100.00;58369.09;5070156;28;19921;-71
2023/10/15 10:09:56;;;;;;;;;;;;;;;-140.72;100.00;58279.66;5066541;28;20068;-71
2023/10/15 10:12:27;;;;;;;;;;;;;;;-140.72;100.00;58202.44;5068646;28;19926;-70
2023/10/15 10:15:01;;;;;;;;;;;;;;;-140.72;100.00;58100.84;5073384;28;20955;-74
2023/10/15 10:17:28;;;;;;;;;;;;;;;-140.72;100.00;58043.94;5068131;28;19924;-71
2023/10/15 10:19:54;;;;;;;;;;;;;;;-140.72;100.00;57875.28;5068808;28;19928;-72
2023/10/15 10:22:29;;;;;;;;;;;;;;;-140.72;100.00;57633.50;5068324;28;19924;-71
2023/10/15 10:24:58;;;;;;;;;;;;;;;-140.72;100.00;57576.63;5076290;28;19956;-70
2023/10/15 10:27:24;;;;;;;;;;;;;;;-140.72;100.00;57499.41;5074764;28;19921;-71
2023/10/15 10:29:49;;;;;;;;;;;;;;;-140.72;100.00;57513.63;5077439;28;19920;-70
2023/10/15 10:32:15;;;;;;;;;;;;;;;-140.72;100.00;57452.69;5070864;28;19920;-68
2023/10/15 10:34:41;;;;;;;;;;;;;;;-140.72;100.00;57442.53;5074437;28;19920;-69
2023/10/15 10:37:20;;;;;;;;;;;;;;;-140.72;100.00;57373.44;5077193;28;20011;-69
2023/10/15 10:39:47;;;;;;;;;;;;;;;-140.72;100.00;57050.41;5071468;28;20003;-68
2023/10/15 10:42:26;;;;;;;;;;;;;;;-140.72;100.00;56831.03;5076123;28;20017;-68
2023/10/15 10:44:51;;;;;;;;;;;;;;;-140.72;100.00;56540.53;5075131;28;19924;-70
2023/10/15 10:47:18;;;;;;;;;;;;;;;-140.72;100.00;56434.94;5078843;28;20427;-68
2023/10/15 10:49:47;;;;;;;;;;;;;;;-140.72;100.00;56518.19;5075235;28;20291;-68
2023/10/15 10:52:16;;;;;;;;;;;;;;;-140.72;100.00;56542.56;5073689;28;19920;-68
2023/10/15 10:54:42;;;;;;;;;;;;;;;-140.72;100.00;56658.38;5076743;28;19921;-67
2023/10/15 10:57:08;;;;;;;;;;;;;;;-140.72;100.00;56658.38;5079096;28;19916;-68
2023/10/15 10:59:34;;;;;;;;;;;;;;;-140.72;100.00;56739.63;5082332;28;20949;-70
2023/10/15 11:02:00;;;;;;;;;;;;;;;-140.72;100.00;56859.47;5078032;28;19921;-69
2023/10/15 11:04:25;;;;;;;;;;;;;;;-140.72;100.00;56816.81;5079167;28;19943;-68
2023/10/15 11:06:51;;;;;;;;;;;;;;;-140.72;100.00;56136.34;5075435;28;20368;-70
2023/10/15 11:09:16;;;;;;;;;;;;;;;-140.72;100.00;55691.56;5075198;28;19931;-68
2023/10/15 11:11:48;;;;;;;;;;;;;;;-140.72;100.00;55640.81;5072203;28;19920;-68
2023/10/15 11:14:14;;;;;;;;;;;;;;;-140.72;100.00;55354.47;5073660;28;19970;-69
2023/10/15 11:16:42;;;;;;;;;;;;;;;-140.72;100.00;55110.81;5076414;28;19921;-68
2023/10/15 11:19:23;;;;;;;;;;;;;;;-140.72;100.00;54558.56;5074010;28;19924;-69
2023/10/15 11:21:50;;;;;;;;;;;;;;;-140.72;100.00;54436.75;5078868;28;19948;-69
2023/10/15 11:24:15;;;;;;;;;;;;;;;-140.72;100.00;53634.91;5075260;28;20278;-69
2023/10/15 11:26:41;;;;;;;;;;;;;;;-140.72;100.00;52833.22;5078194;28;19917;-69
2023/10/15 11:29:10;;;;;;;;;;;;;;;-140.72;100.00;52597.84;5072679;28;20015;-69
2023/10/15 11:31:36;;;;;;;;;;;;;;;-140.72;100.00;52605.94;5066582;28;19920;-68
2023/10/15 11:34:02;;;;;;;;;;;;;;;-140.72;0.00;52597.84;5080347;28;19928;-70
2023/10/15 11:36:28;;;;;;;;;;;;;;;-140.72;0.00;52628.28;5075443;28;19966;-69
2023/10/15 11:38:53;;;;;;;;;;;;;;;-140.72;0.00;52581.59;5074549;28;19986;-71
2023/10/15 11:41:18;;;;;;;;;;;;;;;-140.72;0.00;52612.03;5070917;28;20375;-71
2023/10/15 11:43:43;;;;;;;;;;;;;;;-140.72;0.00;52573.50;5071294;28;20434;-71
2023/10/15 11:46:10;;;;;;;;;;;;;;;-140.72;0.00;52697.28;5075106;28;19995;-70
2023/10/15 11:48:35;;;;;;;;;;;;;;;-140.72;0.00;52603.94;5072207;28;20310;-71
2023/10/15 11:51:00;;;;;;;;;;;;;;;-140.72;0.00;52719.59;5074990;28;19920;-72
2023/10/15 11:53:28;;;;;;;;;;;;;;;-140.72;0.00;52666.84;5073222;28;20034;-75
2023/10/15 11:55:53;;;;;;;;;;;;;;;-140.72;0.00;52723.66;5067787;28;19922;-71
2023/10/15 11:58:23;;;;;;;;;;;;;;;-140.72;0.00;52788.59;5068316;28;20007;-71
2023/10/15 12:00:48;;;;;;;;;;;;;;;-140.72;0.00;52857.59;5071149;28;20405;-69
2023/10/15 12:03:16;;;;;;;;;;;;;;;-140.72;4.00;52898.16;5072336;28;19940;-69
2023/10/15 12:05:42;;;;;;;;;;;;;;;-140.72;100.00;52861.66;5076960;28;19920;-70
2023/10/15 12:08:07;;;;;;;;;;;;;;;-140.72;100.00;52894.13;5071709;28;19921;-69
2023/10/15 12:10:33;;;;;;;;;;;;;;;-140.72;100.00;52894.13;5074125;28;19966;-70
2023/10/15 12:13:02;;;;;;;;;;;;;;;-140.72;100.00;52946.88;5072299;28;20007;-70
2023/10/15 12:15:30;;;;;;;;;;;;;;;-140.72;100.00;52918.47;5071502;28;20681;-73
2023/10/15 12:17:56;;;;;;;;;;;;;;;-140.72;100.00;52869.75;5066370;28;19920;-70
2023/10/15 12:20:21;;;;;;;;;;;;;;;-140.72;100.00;52873.81;5073965;28;19920;-68
2023/10/15 12:22:46;;;;;;;;;;;;;;;-140.72;100.00;52898.16;5069724;28;19921;-71
2023/10/15 12:25:12;;;;;;;;;;;;;;;-140.72;100.00;52851.50;5074667;28;19920;-71
2023/10/15 12:27:37;;;;;;;;;;;;;;;-140.72;100.00;52847.44;5072899;28;20321;-69
2023/10/15 12:30:07;;;;;;;;;;;;;;;-140.72;100.00;52762.22;5067038;28;20599;-71